sensor_id;sensor_type;location;lat;lon;timestamp;pressure;altitude;pressure_sealevel;temperature;humidity
33554;BME280;19885;42.208;24.952;2023-05-25T00:01:56;99750.44;;;17.40;91.99
33554;BME280;19885;42.208;24.952;2023-05-25T00:04:22;99754.41;;;17.19;92.51
33554;BME280;19885;42.208;24.952;2023-05-25T00:06:51;99753.78;;;17.06;92.30
33554;BME280;19885;42.208;24.952;2023-05-25T00:09:16;99756.53;;;17.02;92.81
33554;BME280;19885;42.208;24.952;2023-05-25T00:11:41;99759.97;;;17.04;92.61
33554;BME280;19885;42.208;24.952;2023-05-25T00:14:06;99751.16;;;17.06;92.70
33554;BME280;19885;42.208;24.952;2023-05-25T00:16:32;99753.94;;;17.00;93.68
33554;BME280;19885;42.208;24.952;2023-05-25T00:19:04;99748.84;;;16.91;95.15
33554;BME280;19885;42.208;24.952;2023-05-25T00:21:29;99743.53;;;16.94;95.81
33554;BME280;19885;42.208;24.952;2023-05-25T00:23:55;99748.59;;;17.03;93.55
33554;BME280;19885;42.208;24.952;2023-05-25T00:26:20;99750.22;;;17.09;92.86
33554;BME280;19885;42.208;24.952;2023-05-25T00:28:45;99753.06;;;17.00;93.39
33554;BME280;19885;42.208;24.952;2023-05-25T00:31:11;99757.25;;;17.08;93.89
33554;BME280;19885;42.208;24.952;2023-05-25T00:33:36;99744.31;;;16.98;95.19
33554;BME280;19885;42.208;24.952;2023-05-25T00:36:01;99740.38;;;16.77;96.98
33554;BME280;19885;42.208;24.952;2023-05-25T00:38:27;99738.69;;;16.73;97.40
33554;BME280;19885;42.208;24.952;2023-05-25T00:40:55;99735.66;;;16.00;100.00
33554;BME280;19885;42.208;24.952;2023-05-25T00:43:21;99748.13;;;16.39;100.00
33554;BME280;19885;42.208;24.952;2023-05-25T00:45:47;99743.03;;;16.76;99.12
33554;BME280;19885;42.208;24.952;2023-05-25T00:48:13;99748.31;;;16.76;99.45
33554;BME280;19885;42.208;24.952;2023-05-25T00:50:40;99742.34;;;16.66;99.07
33554;BME280;19885;42.208;24.952;2023-05-25T00:53:06;99742.78;;;16.88;97.95
33554;BME280;19885;42.208;24.952;2023-05-25T00:55:35;99740.38;;;16.77;97.95
33554;BME280;19885;42.208;24.952;2023-05-25T00:58:02;99748.94;;;16.87;98.14
33554;BME280;19885;42.208;24.952;2023-05-25T01:00:28;99737.72;;;16.77;98.71
33554;BME280;19885;42.208;24.952;2023-05-25T01:02:54;99730.66;;;16.79;99.01
33554;BME280;19885;42.208;24.952;2023-05-25T01:05:21;99742.03;;;16.81;97.92
33554;BME280;19885;42.208;24.952;2023-05-25T01:07:49;99733.69;;;16.61;97.51
33554;BME280;19885;42.208;24.952;2023-05-25T01:10:17;99737.22;;;16.59;97.82
33554;BME280;19885;42.208;24.952;2023-05-25T01:12:45;99729.16;;;16.69;98.11
33554;BME280;19885;42.208;24.952;2023-05-25T01:15:10;99731.19;;;16.55;99.37
33554;BME280;19885;42.208;24.952;2023-05-25T01:17:36;99736.31;;;16.61;98.72
33554;BME280;19885;42.208;24.952;2023-05-25T01:20:02;99733.72;;;16.60;98.78
33554;BME280;19885;42.208;24.952;2023-05-25T01:22:34;99731.78;;;16.69;98.95
33554;BME280;19885;42.208;24.952;2023-05-25T01:25:08;99739.50;;;16.77;98.14
33554;BME280;19885;42.208;24.952;2023-05-25T01:27:45;99737.28;;;16.57;98.86
33554;BME280;19885;42.208;24.952;2023-05-25T01:30:13;99737.06;;;16.68;99.57
33554;BME280;19885;42.208;24.952;2023-05-25T01:32:39;99747.44;;;16.75;99.01
33554;BME280;19885;42.208;24.952;2023-05-25T01:35:05;99743.28;;;16.64;99.36
33554;BME280;19885;42.208;24.952;2023-05-25T01:37:32;99741.38;;;16.70;97.90
33554;BME280;19885;42.208;24.952;2023-05-25T01:40:01;99737.78;;;16.76;97.26
33554;BME280;19885;42.208;24.952;2023-05-25T01:42:27;99734.38;;;16.71;98.67
33554;BME280;19885;42.208;24.952;2023-05-25T01:44:52;99734.59;;;16.60;98.88
33554;BME280;19885;42.208;24.952;2023-05-25T01:47:21;99732.16;;;16.48;99.62
33554;BME280;19885;42.208;24.952;2023-05-25T01:49:54;99733.72;;;16.60;98.23
33554;BME280;19885;42.208;24.952;2023-05-25T01:52:27;99742.72;;;16.45;99.97
33554;BME280;19885;42.208;24.952;2023-05-25T01:57:39;99735.94;;;16.35;99.46
33554;BME280;19885;42.208;24.952;2023-05-25T02:00:06;99734.94;;;15.34;100.00
33554;BME280;19885;42.208;24.952;2023-05-25T02:02:33;99735.03;;;15.29;100.00
33554;BME280;19885;42.208;24.952;2023-05-25T02:05:00;99741.19;;;15.27;100.00
33554;BME280;19885;42.208;24.952;2023-05-25T02:07:26;99735.47;;;14.97;100.00
33554;BME280;19885;42.208;24.952;2023-05-25T02:09:51;99731.78;;;15.70;100.00
33554;BME280;19885;42.208;24.952;2023-05-25T02:12:16;99736.22;;;15.69;100.00
33554;BME280;19885;42.208;24.952;2023-05-25T02:14:42;99741.28;;;15.80;100.00
33554;BME280;19885;42.208;24.952;2023-05-25T02:17:10;99738.09;;;15.60;100.00
33554;BME280;19885;42.208;24.952;2023-05-25T02:19:36;99740.72;;;16.12;100.00
33554;BME280;19885;42.208;24.952;2023-05-25T02:22:02;99749.16;;;16.29;100.00
33554;BME280;19885;42.208;24.952;2023-05-25T02:24:27;99749.31;;;16.20;100.00
33554;BME280;19885;42.208;24.952;2023-05-25T02:26:52;99751.25;;;15.58;100.00
33554;BME280;19885;42.208;24.952;2023-05-25T02:29:17;99757.25;;;15.04;100.00
33554;BME280;19885;42.208;24.952;2023-05-25T02:31:43;99746.47;;;14.57;100.00
33554;BME280;19885;42.208;24.952;2023-05-25T02:34:08;99752.47;;;14.69;100.00
33554;BME280;19885;42.208;24.952;2023-05-25T02:36:33;99760.91;;;15.58;100.00
33554;BME280;19885;42.208;24.952;2023-05-25T02:38:59;99756.41;;;15.64;100.00
33554;BME280;19885;42.208;24.952;2023-05-25T02:41:24;99749.13;;;15.83;100.00
33554;BME280;19885;42.208;24.952;2023-05-25T02:43:51;99751.91;;;15.74;100.00
33554;BME280;19885;42.208;24.952;2023-05-25T02:46:16;99756.16;;;15.80;100.00
33554;BME280;19885;42.208;24.952;2023-05-25T02:48:42;99762.19;;;15.86;100.00
33554;BME280;19885;42.208;24.952;2023-05-25T02:51:07;99756.78;;;15.95;100.00
33554;BME280;19885;42.208;24.952;2023-05-25T02:53:33;99769.81;;;16.03;100.00
33554;BME280;19885;42.208;24.952;2023-05-25T02:55:58;99765.31;;;16.09;99.81
33554;BME280;19885;42.208;24.952;2023-05-25T02:58:24;99776.63;;;16.13;99.30
33554;BME280;19885;42.208;24.952;2023-05-25T03:00:50;99772.25;;;16.15;98.53
33554;BME280;19885;42.208;24.952;2023-05-25T03:03:16;99774.06;;;16.08;99.59
33554;BME280;19885;42.208;24.952;2023-05-25T03:05:41;99774.94;;;16.09;98.88
33554;BME280;19885;42.208;24.952;2023-05-25T03:08:06;99773.22;;;16.08;98.36
33554;BME280;19885;42.208;24.952;2023-05-25T03:10:32;99776.69;;;16.10;98.00
33554;BME280;19885;42.208;24.952;2023-05-25T03:12:57;99772.47;;;16.00;99.55
33554;BME280;19885;42.208;24.952;2023-05-25T03:15:22;99771.59;;;16.01;98.80
33554;BME280;19885;42.208;24.952;2023-05-25T03:17:48;99777.47;;;15.61;100.00
33554;BME280;19885;42.208;24.952;2023-05-25T03:20:13;99773.03;;;15.66;100.00
33554;BME280;19885;42.208;24.952;2023-05-25T03:22:41;99773.75;;;15.76;100.00
33554;BME280;19885;42.208;24.952;2023-05-25T03:25:07;99770.06;;;15.88;100.00
33554;BME280;19885;42.208;24.952;2023-05-25T03:27:33;99771.75;;;15.92;100.00
33554;BME280;19885;42.208;24.952;2023-05-25T03:30:00;99778.69;;;15.96;99.43
33554;BME280;19885;42.208;24.952;2023-05-25T03:32:25;99775.31;;;15.88;99.47
33554;BME280;19885;42.208;24.952;2023-05-25T03:34:52;99785.97;;;15.79;99.37
33554;BME280;19885;42.208;24.952;2023-05-25T03:37:17;99782.44;;;15.80;99.34
33554;BME280;19885;42.208;24.952;2023-05-25T03:39:43;99786.91;;;15.76;100.00
33554;BME280;19885;42.208;24.952;2023-05-25T03:42:09;99785.91;;;15.82;100.00
33554;BME280;19885;42.208;24.952;2023-05-25T03:44:34;99789.31;;;15.90;99.91
33554;BME280;19885;42.208;24.952;2023-05-25T03:46:59;99781.28;;;15.99;100.00
33554;BME280;19885;42.208;24.952;2023-05-25T03:49:25;99783.13;;;15.92;100.00
33554;BME280;19885;42.208;24.952;2023-05-25T03:51:52;99789.00;;;16.06;99.79
33554;BME280;19885;42.208;24.952;2023-05-25T03:54:17;99784.50;;;16.14;99.73
33554;BME280;19885;42.208;24.952;2023-05-25T03:56:42;99790.47;;;16.24;99.08
33554;BME280;19885;42.208;24.952;2023-05-25T03:59:08;99783.44;;;16.26;99.46
33554;BME280;19885;42.208;24.952;2023-05-25T04:01:33;99784.34;;;16.22;99.95
33554;BME280;19885;42.208;24.952;2023-05-25T04:04:02;99785.09;;;16.30;100.00
33554;BME280;19885;42.208;24.952;2023-05-25T04:06:27;99782.44;;;16.33;100.00
33554;BME280;19885;42.208;24.952;2023-05-25T04:08:54;99784.03;;;16.41;100.00
33554;BME280;19885;42.208;24.952;2023-05-25T04:11:19;99779.50;;;16.51;100.00
33554;BME280;19885;42.208;24.952;2023-05-25T04:13:48;99793.22;;;16.65;99.57
33554;BME280;19885;42.208;24.952;2023-05-25T04:16:13;99789.69;;;16.19;100.00
33554;BME280;19885;42.208;24.952;2023-05-25T04:18:38;99783.34;;;16.29;100.00
33554;BME280;19885;42.208;24.952;2023-05-25T04:21:03;99788.22;;;16.53;100.00
33554;BME280;19885;42.208;24.952;2023-05-25T04:23:29;99788.94;;;16.61;100.00
33554;BME280;19885;42.208;24.952;2023-05-25T04:25:55;99790.91;;;16.47;100.00
33554;BME280;19885;42.208;24.952;2023-05-25T04:28:20;99791.66;;;16.58;100.00
33554;BME280;19885;42.208;24.952;2023-05-25T04:30:46;99796.25;;;16.91;100.00
33554;BME280;19885;42.208;24.952;2023-05-25T04:33:12;99798.66;;;17.02;100.00
33554;BME280;19885;42.208;24.952;2023-05-25T04:35:37;99803.53;;;17.20;100.00
33554;BME280;19885;42.208;24.952;2023-05-25T04:38:04;99810.38;;;17.29;100.00
33554;BME280;19885;42.208;24.952;2023-05-25T04:40:31;99808.22;;;17.47;100.00
33554;BME280;19885;42.208;24.952;2023-05-25T04:43:00;99805.34;;;17.18;100.00
33554;BME280;19885;42.208;24.952;2023-05-25T04:45:25;99800.03;;;17.20;100.00
33554;BME280;19885;42.208;24.952;2023-05-25T04:47:51;99797.38;;;17.21;100.00
33554;BME280;19885;42.208;24.952;2023-05-25T04:50:17;99805.84;;;17.35;100.00
33554;BME280;19885;42.208;24.952;2023-05-25T04:52:42;99806.59;;;17.42;100.00
33554;BME280;19885;42.208;24.952;2023-05-25T04:55:07;99816.03;;;17.52;100.00
33554;BME280;19885;42.208;24.952;2023-05-25T04:57:33;99817.22;;;17.77;100.00
33554;BME280;19885;42.208;24.952;2023-05-25T04:59:58;99810.56;;;17.61;100.00
33554;BME280;19885;42.208;24.952;2023-05-25T05:02:24;99817.97;;;17.44;100.00
33554;BME280;19885;42.208;24.952;2023-05-25T05:04:50;99816.19;;;17.44;100.00
33554;BME280;19885;42.208;24.952;2023-05-25T05:07:17;99812.81;;;16.96;100.00
33554;BME280;19885;42.208;24.952;2023-05-25T05:09:43;99815.28;;;17.05;100.00
33554;BME280;19885;42.208;24.952;2023-05-25T05:12:08;99809.63;;;17.22;100.00
33554;BME280;19885;42.208;24.952;2023-05-25T05:14:33;99815.28;;;17.45;100.00
33554;BME280;19885;42.208;24.952;2023-05-25T05:16:59;99811.75;;;17.46;100.00
33554;BME280;19885;42.208;24.952;2023-05-25T05:19:25;99805.09;;;17.29;100.00
33554;BME280;19885;42.208;24.952;2023-05-25T05:21:50;99800.75;;;17.28;100.00
33554;BME280;19885;42.208;24.952;2023-05-25T05:24:16;99804.56;;;17.13;100.00
33554;BME280;19885;42.208;24.952;2023-05-25T05:26:41;99804.56;;;17.13;100.00
33554;BME280;19885;42.208;24.952;2023-05-25T05:29:08;99810.44;;;17.26;100.00
33554;BME280;19885;42.208;24.952;2023-05-25T05:31:34;99813.56;;;17.01;100.00
33554;BME280;19885;42.208;24.952;2023-05-25T05:34:00;99812.53;;;17.10;100.00
33554;BME280;19885;42.208;24.952;2023-05-25T05:36:26;99818.53;;;17.17;100.00
33554;BME280;19885;42.208;24.952;2023-05-25T05:38:54;99814.69;;;17.33;100.00
33554;BME280;19885;42.208;24.952;2023-05-25T05:41:20;99816.69;;;17.22;100.00
33554;BME280;19885;42.208;24.952;2023-05-25T05:46:48;99817.47;;;17.25;100.00
33554;BME280;19885;42.208;24.952;2023-05-25T05:49:17;99821.44;;;17.46;100.00
33554;BME280;19885;42.208;24.952;2023-05-25T05:51:43;99822.38;;;17.81;100.00
33554;BME280;19885;42.208;24.952;2023-05-25T05:54:08;99824.09;;;17.84;100.00
33554;BME280;19885;42.208;24.952;2023-05-25T05:56:34;99828.25;;;17.94;100.00
33554;BME280;19885;42.208;24.952;2023-05-25T05:58:59;99827.66;;;17.83;100.00
33554;BME280;19885;42.208;24.952;2023-05-25T06:01:25;99830.19;;;17.86;100.00
33554;BME280;19885;42.208;24.952;2023-05-25T06:03:50;99834.84;;;17.75;100.00
33554;BME280;19885;42.208;24.952;2023-05-25T06:06:18;99831.06;;;17.87;100.00
33554;BME280;19885;42.208;24.952;2023-05-25T06:08:43;99833.09;;;18.11;98.51
33554;BME280;19885;42.208;24.952;2023-05-25T06:11:08;99823.59;;;18.05;99.01
33554;BME280;19885;42.208;24.952;2023-05-25T06:13:34;99828.75;;;18.10;97.96
33554;BME280;19885;42.208;24.952;2023-05-25T06:15:59;99829.16;;;17.93;100.00
33554;BME280;19885;42.208;24.952;2023-05-25T06:18:24;99827.44;;;17.92;100.00
33554;BME280;19885;42.208;24.952;2023-05-25T06:20:50;99826.75;;;18.19;98.71
33554;BME280;19885;42.208;24.952;2023-05-25T07:54:00;99827.66;;;21.98;76.05
33554;BME280;19885;42.208;24.952;2023-05-25T07:56:25;99820.28;;;22.27;74.71
33554;BME280;19885;42.208;24.952;2023-05-25T07:58:50;99826.50;;;22.47;75.54
33554;BME280;19885;42.208;24.952;2023-05-25T08:01:16;99821.72;;;22.55;73.32
33554;BME280;19885;42.208;24.952;2023-05-25T08:03:41;99825.31;;;22.95;73.90
33554;BME280;19885;42.208;24.952;2023-05-25T08:06:06;99816.81;;;23.07;71.99
33554;BME280;19885;42.208;24.952;2023-05-25T08:08:32;99815.34;;;23.00;73.12
33554;BME280;19885;42.208;24.952;2023-05-25T08:10:57;99823.25;;;23.21;75.05
33554;BME280;19885;42.208;24.952;2023-05-25T08:13:22;99816.47;;;23.53;75.47
33554;BME280;19885;42.208;24.952;2023-05-25T08:15:47;99815.88;;;23.65;73.32
33554;BME280;19885;42.208;24.952;2023-05-25T08:18:13;99811.28;;;23.87;72.07
33554;BME280;19885;42.208;24.952;2023-05-25T08:20:39;99808.94;;;23.98;73.20
33554;BME280;19885;42.208;24.952;2023-05-25T08:23:05;99817.75;;;23.63;70.30
33554;BME280;19885;42.208;24.952;2023-05-25T08:25:30;99815.09;;;23.45;68.57
33554;BME280;19885;42.208;24.952;2023-05-25T08:27:55;99815.31;;;23.20;70.08
33554;BME280;19885;42.208;24.952;2023-05-25T08:30:20;99811.44;;;23.27;71.41
33554;BME280;19885;42.208;24.952;2023-05-25T08:32:46;99806.47;;;23.58;68.53
33554;BME280;19885;42.208;24.952;2023-05-25T08:35:11;99801.91;;;23.79;71.21
33554;BME280;19885;42.208;24.952;2023-05-25T08:37:38;99798.13;;;24.01;66.87
33554;BME280;19885;42.208;24.952;2023-05-25T08:40:04;99806.28;;;24.34;64.44
33554;BME280;19885;42.208;24.952;2023-05-25T08:42:31;99803.47;;;24.54;63.23
33554;BME280;19885;42.208;24.952;2023-05-25T08:44:57;99802.59;;;24.54;63.10
33554;BME280;19885;42.208;24.952;2023-05-25T08:47:22;99801.50;;;24.75;64.67
33554;BME280;19885;42.208;24.952;2023-05-25T08:49:48;99800.81;;;24.89;63.83
33554;BME280;19885;42.208;24.952;2023-05-25T08:52:14;99807.75;;;25.08;65.18
33554;BME280;19885;42.208;24.952;2023-05-25T08:54:45;99796.84;;;25.28;64.20
33554;BME280;19885;42.208;24.952;2023-05-25T08:58:13;99795.66;;;25.18;63.38
33554;BME280;19885;42.208;24.952;2023-05-25T09:00:06;99792.97;;;24.86;64.50
33554;BME280;19885;42.208;24.952;2023-05-25T09:02:41;99793.91;;;24.33;66.81
33554;BME280;19885;42.208;24.952;2023-05-25T09:05:08;99792.28;;;24.82;60.15
33554;BME280;19885;42.208;24.952;2023-05-25T09:07:33;99789.97;;;24.40;61.64
33554;BME280;19885;42.208;24.952;2023-05-25T09:10:00;99789.91;;;24.25;64.16
33554;BME280;19885;42.208;24.952;2023-05-25T09:12:27;99797.09;;;24.40;62.27
33554;BME280;19885;42.208;24.952;2023-05-25T09:14:56;99794.16;;;24.80;62.42
33554;BME280;19885;42.208;24.952;2023-05-25T09:17:21;99792.88;;;24.36;60.81
33554;BME280;19885;42.208;24.952;2023-05-25T09:19:48;99790.06;;;24.39;63.45
33554;BME280;19885;42.208;24.952;2023-05-25T09:22:14;99791.25;;;23.97;65.80
33554;BME280;19885;42.208;24.952;2023-05-25T09:24:39;99788.31;;;23.85;66.15
33554;BME280;19885;42.208;24.952;2023-05-25T09:27:05;99794.94;;;23.76;64.28
33554;BME280;19885;42.208;24.952;2023-05-25T09:29:31;99789.00;;;23.71;66.12
33554;BME280;19885;42.208;24.952;2023-05-25T09:31:57;99792.13;;;23.79;68.04
33554;BME280;19885;42.208;24.952;2023-05-25T09:34:22;99781.28;;;24.20;70.26
33554;BME280;19885;42.208;24.952;2023-05-25T09:36:47;99776.91;;;24.36;68.64
33554;BME280;19885;42.208;24.952;2023-05-25T09:39:12;99781.75;;;24.45;70.07
33554;BME280;19885;42.208;24.952;2023-05-25T09:41:41;99769.78;;;24.36;70.85
33554;BME280;19885;42.208;24.952;2023-05-25T09:44:06;99775.94;;;24.54;70.55
33554;BME280;19885;42.208;24.952;2023-05-25T09:46:32;99763.41;;;24.56;67.24
33554;BME280;19885;42.208;24.952;2023-05-25T09:49:03;99770.13;;;24.97;68.50
33554;BME280;19885;42.208;24.952;2023-05-25T09:51:29;99764.66;;;24.49;70.78
33554;BME280;19885;42.208;24.952;2023-05-25T09:53:59;99764.81;;;24.29;70.94
33554;BME280;19885;42.208;24.952;2023-05-25T09:56:25;99767.91;;;24.21;71.19
33554;BME280;19885;42.208;24.952;2023-05-25T09:58:51;99761.69;;;23.85;69.63
33554;BME280;19885;42.208;24.952;2023-05-25T10:01:16;99760.28;;;23.59;68.16
33554;BME280;19885;42.208;24.952;2023-05-25T10:03:45;99767.06;;;23.66;68.44
33554;BME280;19885;42.208;24.952;2023-05-25T10:06:12;99757.19;;;23.68;72.72
33554;BME280;19885;42.208;24.952;2023-05-25T10:08:38;99757.50;;;23.62;70.64
33554;BME280;19885;42.208;24.952;2023-05-25T10:11:04;99760.72;;;23.69;71.23
33554;BME280;19885;42.208;24.952;2023-05-25T10:13:30;99756.88;;;23.74;70.40
33554;BME280;19885;42.208;24.952;2023-05-25T10:15:56;99771.06;;;24.10;71.64
33554;BME280;19885;42.208;24.952;2023-05-25T10:18:23;99773.81;;;24.09;71.47
33554;BME280;19885;42.208;24.952;2023-05-25T10:20:50;99776.94;;;24.17;75.32
33554;BME280;19885;42.208;24.952;2023-05-25T10:23:17;99784.09;;;24.34;71.72
33554;BME280;19885;42.208;24.952;2023-05-25T10:25:45;99781.94;;;24.42;68.47
33554;BME280;19885;42.208;24.952;2023-05-25T10:28:29;99784.72;;;24.22;69.09
33554;BME280;19885;42.208;24.952;2023-05-25T10:30:57;99777.06;;;24.33;69.63
33554;BME280;19885;42.208;24.952;2023-05-25T10:33:23;99785.91;;;24.33;69.30
33554;BME280;19885;42.208;24.952;2023-05-25T10:35:49;99790.91;;;24.22;69.01
33554;BME280;19885;42.208;24.952;2023-05-25T10:38:14;99788.44;;;24.19;70.74
33554;BME280;19885;42.208;24.952;2023-05-25T10:40:41;99794.84;;;23.96;74.23
33554;BME280;19885;42.208;24.952;2023-05-25T10:43:08;99797.69;;;23.56;78.02
33554;BME280;19885;42.208;24.952;2023-05-25T10:45:34;99795.03;;;23.37;84.66
33554;BME280;19885;42.208;24.952;2023-05-25T10:48:00;99791.69;;;23.32;87.02
33554;BME280;19885;42.208;24.952;2023-05-25T10:50:25;99779.22;;;23.53;87.80
33554;BME280;19885;42.208;24.952;2023-05-25T10:53:06;99776.03;;;23.45;85.31
33554;BME280;19885;42.208;24.952;2023-05-25T10:55:42;99770.63;;;23.28;86.73
33554;BME280;19885;42.208;24.952;2023-05-25T10:58:08;99764.66;;;23.23;89.96
33554;BME280;19885;42.208;24.952;2023-05-25T11:00:34;99778.88;;;23.03;89.03
33554;BME280;19885;42.208;24.952;2023-05-25T11:03:00;99763.09;;;23.19;90.10
33554;BME280;19885;42.208;24.952;2023-05-25T11:07:51;99761.25;;;23.19;87.49
33554;BME280;19885;42.208;24.952;2023-05-25T11:10:17;99756.00;;;22.99;82.15
33554;BME280;19885;42.208;24.952;2023-05-25T11:12:42;99759.34;;;23.23;85.87
33554;BME280;19885;42.208;24.952;2023-05-25T11:15:11;99746.13;;;23.40;79.74
33554;BME280;19885;42.208;24.952;2023-05-25T11:17:43;99750.03;;;23.13;81.46
33554;BME280;19885;42.208;24.952;2023-05-25T11:20:09;99752.56;;;23.16;80.56
33554;BME280;19885;42.208;24.952;2023-05-25T11:22:45;99750.78;;;23.54;84.75
33554;BME280;19885;42.208;24.952;2023-05-25T11:27:55;99753.31;;;23.92;73.97
33554;BME280;19885;42.208;24.952;2023-05-25T11:30:26;99760.91;;;24.36;72.79
33554;BME280;19885;42.208;24.952;2023-05-25T11:32:52;99756.91;;;24.61;74.86
33554;BME280;19885;42.208;24.952;2023-05-25T11:35:20;99763.75;;;25.00;73.00
33554;BME280;19885;42.208;24.952;2023-05-25T11:37:49;99762.50;;;25.22;64.46
33554;BME280;19885;42.208;24.952;2023-05-25T11:40:20;99756.84;;;25.28;71.79
33554;BME280;19885;42.208;24.952;2023-05-25T11:42:46;99751.81;;;25.71;69.82
33554;BME280;19885;42.208;24.952;2023-05-25T11:45:15;99753.38;;;25.43;64.81
33554;BME280;19885;42.208;24.952;2023-05-25T11:47:41;99745.59;;;25.70;65.37
33554;BME280;19885;42.208;24.952;2023-05-25T11:50:07;99740.47;;;25.97;65.70
33554;BME280;19885;42.208;24.952;2023-05-25T11:52:39;99734.84;;;26.17;63.15
33554;BME280;19885;42.208;24.952;2023-05-25T11:55:11;99734.31;;;26.26;64.65
33554;BME280;19885;42.208;24.952;2023-05-25T11:57:38;99739.44;;;26.15;67.18
33554;BME280;19885;42.208;24.952;2023-05-25T12:00:06;99732.56;;;26.11;68.05
33554;BME280;19885;42.208;24.952;2023-05-25T12:02:36;99731.06;;;26.21;67.50
33554;BME280;19885;42.208;24.952;2023-05-25T12:05:02;99720.72;;;26.15;64.53
33554;BME280;19885;42.208;24.952;2023-05-25T12:07:28;99715.13;;;26.04;58.63
33554;BME280;19885;42.208;24.952;2023-05-25T12:10:03;99711.13;;;26.27;60.93
33554;BME280;19885;42.208;24.952;2023-05-25T12:12:29;99699.97;;;26.34;58.80
33554;BME280;19885;42.208;24.952;2023-05-25T12:14:54;99699.97;;;26.34;58.49
33554;BME280;19885;42.208;24.952;2023-05-25T12:17:24;99714.44;;;26.46;60.68
33554;BME280;19885;42.208;24.952;2023-05-25T12:19:49;99717.19;;;25.99;58.01
33554;BME280;19885;42.208;24.952;2023-05-25T12:22:15;99719.63;;;26.33;59.12
33554;BME280;19885;42.208;24.952;2023-05-25T12:39:56;99738.53;;;25.54;66.83
33554;BME280;19885;42.208;24.952;2023-05-25T12:42:21;99736.81;;;25.21;65.04
33554;BME280;19885;42.208;24.952;2023-05-25T12:44:52;99733.56;;;25.15;68.14
33554;BME280;19885;42.208;24.952;2023-05-25T12:47:20;99737.81;;;25.19;67.82
33554;BME280;19885;42.208;24.952;2023-05-25T12:49:47;99750.28;;;25.18;66.66
33554;BME280;19885;42.208;24.952;2023-05-25T12:54:56;99754.03;;;24.32;71.92
33554;BME280;19885;42.208;24.952;2023-05-25T12:57:21;99753.06;;;24.16;72.31
33554;BME280;19885;42.208;24.952;2023-05-25T12:59:47;99750.19;;;24.01;71.10
33554;BME280;19885;42.208;24.952;2023-05-25T13:02:20;99742.94;;;23.69;74.32
33554;BME280;19885;42.208;24.952;2023-05-25T13:04:46;99741.91;;;23.72;74.29
33554;BME280;19885;42.208;24.952;2023-05-25T13:07:11;99742.09;;;23.50;75.08
33554;BME280;19885;42.208;24.952;2023-05-25T13:09:36;99742.41;;;23.44;73.77
33554;BME280;19885;42.208;24.952;2023-05-25T13:12:02;99735.88;;;23.31;72.57
33554;BME280;19885;42.208;24.952;2023-05-25T13:17:06;99725.84;;;23.56;71.93
33554;BME280;19885;42.208;24.952;2023-05-25T13:19:31;99731.31;;;23.53;72.97
33554;BME280;19885;42.208;24.952;2023-05-25T13:21:57;99737.53;;;23.35;72.47
33554;BME280;19885;42.208;24.952;2023-05-25T13:24:22;99741.06;;;23.15;71.16
33554;BME280;19885;42.208;24.952;2023-05-25T13:26:48;99744.09;;;23.08;72.01
33554;BME280;19885;42.208;24.952;2023-05-25T13:29:14;99753.88;;;23.26;71.01
33554;BME280;19885;42.208;24.952;2023-05-25T13:31:40;99766.09;;;23.11;70.42
33554;BME280;19885;42.208;24.952;2023-05-25T13:34:05;99778.16;;;23.18;71.59
33554;BME280;19885;42.208;24.952;2023-05-25T13:36:30;99776.00;;;23.26;72.47
33554;BME280;19885;42.208;24.952;2023-05-25T13:38:59;99771.63;;;23.25;74.60
33554;BME280;19885;42.208;24.952;2023-05-25T13:41:24;99784.50;;;23.16;75.68
33554;BME280;19885;42.208;24.952;2023-05-25T13:43:50;99788.91;;;22.97;75.01
33554;BME280;19885;42.208;24.952;2023-05-25T13:46:17;99790.47;;;23.21;74.14
33554;BME280;19885;42.208;24.952;2023-05-25T13:48:42;99785.03;;;23.04;69.24
33554;BME280;19885;42.208;24.952;2023-05-25T13:51:12;99783.59;;;22.97;72.82
33554;BME280;19885;42.208;24.952;2023-05-25T13:53:37;99784.00;;;22.88;77.82
33554;BME280;19885;42.208;24.952;2023-05-25T13:56:02;99797.66;;;22.80;81.14
33554;BME280;19885;42.208;24.952;2023-05-25T13:58:28;99792.00;;;22.67;79.20
33554;BME280;19885;42.208;24.952;2023-05-25T14:00:53;99793.72;;;22.68;76.68
33554;BME280;19885;42.208;24.952;2023-05-25T14:03:18;99799.00;;;22.28;74.05
33554;BME280;19885;42.208;24.952;2023-05-25T14:05:43;99800.19;;;21.99;71.63
33554;BME280;19885;42.208;24.952;2023-05-25T14:08:09;99807.53;;;21.70;71.65
33554;BME280;19885;42.208;24.952;2023-05-25T14:10:36;99807.97;;;21.81;72.18
33554;BME280;19885;42.208;24.952;2023-05-25T14:13:03;99801.88;;;21.79;73.71
33554;BME280;19885;42.208;24.952;2023-05-25T14:15:28;99795.34;;;21.66;72.84
33554;BME280;19885;42.208;24.952;2023-05-25T14:17:53;99796.75;;;21.53;73.27
33554;BME280;19885;42.208;24.952;2023-05-25T14:20:18;99791.00;;;21.63;73.94
33554;BME280;19885;42.208;24.952;2023-05-25T16:32:48;99778.97;;;21.55;84.34
33554;BME280;19885;42.208;24.952;2023-05-25T16:35:13;99786.06;;;21.54;84.16
33554;BME280;19885;42.208;24.952;2023-05-25T16:37:39;99795.25;;;21.46;83.03
33554;BME280;19885;42.208;24.952;2023-05-25T16:40:04;99802.13;;;21.28;83.97
33554;BME280;19885;42.208;24.952;2023-05-25T16:42:30;99803.66;;;20.86;89.46
33554;BME280;19885;42.208;24.952;2023-05-25T16:44:55;99806.75;;;20.23;93.34
33554;BME280;19885;42.208;24.952;2023-05-25T16:47:20;99803.09;;;19.99;95.29
33554;BME280;19885;42.208;24.952;2023-05-25T16:49:46;99794.97;;;20.05;94.14
33554;BME280;19885;42.208;24.952;2023-05-25T16:52:11;99791.31;;;20.35;92.86
33554;BME280;19885;42.208;24.952;2023-05-25T16:54:37;99786.09;;;20.83;88.36
33554;BME280;19885;42.208;24.952;2023-05-25T16:57:02;99778.47;;;20.99;86.98